Thyella — SV9685 — position and weather

sailwx.info

Track history (hours):
 
Tides and Currents Weather Stations Pressure Air Temp Water Temp Dewpoint Dewpoint Depression Visibility Wind Speed Wind Dir Waves Ship Positions

Thyella

Last reported at 2017-Oct-17 12:30 UTC. Time now 2017-Oct-17 12:58 UTC.
Position N 40°51' E 024°19'.

Length 19 m; draft 2.8 m.

Type: Fishing. MMSI: 237998000.

Date/timePositionNaut miles runAvg speedWind from/ knotsBaromVisibWave heightAir tempDewpointWater temp
2017-Oct-17 12:30N 40°51' E 024°19'0 0.0
2017-Oct-17 12:01N 40°51' E 024°19'0 0.0
2017-Oct-17 11:30N 40°51' E 024°19'0 0.0
2017-Oct-17 11:00N 40°51' E 024°19'0 0.0
2017-Oct-17 10:30N 40°51' E 024°19'0 0.0
2017-Oct-17 10:01N 40°51' E 024°19'0 0.0
2017-Oct-17 09:31N 40°51' E 024°19'0 0.0
2017-Oct-17 09:00N 40°51' E 024°19'0 0.0
2017-Oct-17 08:30N 40°51' E 024°19'0 0.0
2017-Oct-17 08:01N 40°51' E 024°19'0 0.0
2017-Oct-17 07:31N 40°51' E 024°19'0 0.0
2017-Oct-17 07:00N 40°51' E 024°19'0 0.0
2017-Oct-17 06:31N 40°51' E 024°19'0 0.0
2017-Oct-17 06:01N 40°51' E 024°19'0 0.0
2017-Oct-17 05:31N 40°51' E 024°19'0 0.0
2017-Oct-17 05:01N 40°51' E 024°19'0 0.0
2017-Oct-17 04:31N 40°51' E 024°19'0 0.0
2017-Oct-17 04:01N 40°51' E 024°19'0 0.0
2017-Oct-17 03:31N 40°51' E 024°19'0 0.0
2017-Oct-17 03:01N 40°51' E 024°19'0 0.0
2017-Oct-17 02:30N 40°51' E 024°19'0 0.0
2017-Oct-17 02:01N 40°51' E 024°19'0 0.0
2017-Oct-17 01:30N 40°51' E 024°19'0 0.0
2017-Oct-17 01:00N 40°51' E 024°19'0 0.0
2017-Oct-17 00:31N 40°51' E 024°19'0 0.0
2017-Oct-17 00:01N 40°51' E 024°19'0 0.0
2017-Oct-16 23:30N 40°51' E 024°19'0 0.0
2017-Oct-16 23:01N 40°51' E 024°19'0 0.0
2017-Oct-16 22:30N 40°51' E 024°19'0 0.0
2017-Oct-16 22:01N 40°51' E 024°19'3 6.3
2017-Oct-16 21:31N 40°48' E 024°21'510.0
2017-Oct-16 21:00N 40°44' E 024°17'510.1
2017-Oct-16 20:30N 40°40' E 024°12'2 3.0
2017-Oct-16 19:56N 40°39' E 024°11'0 0.3
2017-Oct-16 19:30N 40°39' E 024°11'0 0.3
2017-Oct-16 19:00N 40°39' E 024°11'0 0.5
2017-Oct-16 18:28N 40°39' E 024°11'0 0.3
2017-Oct-16 17:49N 40°39' E 024°11'0 0.5
2017-Oct-16 17:25N 40°39' E 024°11'0 0.3
2017-Oct-16 17:01N 40°39' E 024°11'3 5.1
2017-Oct-16 16:31N 40°37' E 024°14'4 7.3
2017-Oct-16 16:00N 40°41' E 024°15'4 7.7
2017-Oct-16 15:29N 40°45' E 024°17'4 7.9
2017-Oct-16 15:01N 40°48' E 024°19'3 3.1
2017-Oct-16 14:01N 40°51' E 024°19'0 0.0
2017-Oct-16 13:31N 40°51' E 024°19'0 0.0
2017-Oct-16 13:01N 40°51' E 024°19'0 0.0
2017-Oct-16 12:30N 40°51' E 024°19'0 0.0
2017-Oct-16 12:01N 40°51' E 024°19'0 0.0
2017-Oct-16 11:31N 40°51' E 024°19'0 0.0
2017-Oct-16 11:01N 40°51' E 024°19'0 0.0
2017-Oct-16 10:30N 40°51' E 024°19'0 0.0
2017-Oct-16 10:00N 40°51' E 024°19'0 0.0
2017-Oct-16 09:30N 40°51' E 024°19'0 0.0
2017-Oct-16 09:00N 40°51' E 024°19'0 0.0
2017-Oct-16 08:31N 40°51' E 024°19'0 0.0
2017-Oct-16 08:00N 40°51' E 024°19'0 0.0
2017-Oct-16 07:31N 40°51' E 024°19'0 0.0
2017-Oct-16 07:01N 40°51' E 024°19'0 0.0
2017-Oct-16 06:31N 40°51' E 024°19'0 0.0
2017-Oct-16 06:01N 40°51' E 024°19'0 0.0
2017-Oct-16 05:30N 40°51' E 024°19'0 0.0
2017-Oct-16 05:01N 40°51' E 024°19'0 0.0
2017-Oct-16 04:31N 40°51' E 024°19'0 0.0
2017-Oct-16 04:01N 40°51' E 024°19'0 0.0
2017-Oct-16 03:31N 40°51' E 024°19'0 0.0
2017-Oct-16 03:00N 40°51' E 024°19'0 0.0
2017-Oct-16 02:30N 40°51' E 024°19'0 0.0
2017-Oct-16 02:01N 40°51' E 024°19'0 0.0
2017-Oct-16 01:30N 40°51' E 024°19'0 0.0
2017-Oct-16 01:01N 40°51' E 024°19'0 0.0
2017-Oct-16 00:31N 40°51' E 024°19'0 0.0
2017-Oct-16 00:00N 40°51' E 024°19'0 0.0
2017-Oct-15 23:30N 40°51' E 024°19'0 0.0
2017-Oct-15 23:00N 40°51' E 024°19'0 0.0
2017-Oct-15 22:30N 40°51' E 024°19'0 0.0
2017-Oct-15 22:00N 40°51' E 024°19'0 0.0
2017-Oct-15 21:30N 40°51' E 024°19'2 3.2
2017-Oct-15 21:01N 40°50' E 024°20'5 9.6
2017-Oct-15 20:29N 40°46' E 024°17'510.2
2017-Oct-15 20:00N 40°42' E 024°13'2 3.8
2017-Oct-15 19:27N 40°40' E 024°11'0 0.5
2017-Oct-15 19:00N 40°40' E 024°11'0 0.3
2017-Oct-15 18:28N 40°40' E 024°11'0 0.5
2017-Oct-15 17:52N 40°40' E 024°11'0 0.7
2017-Oct-15 17:30N 40°40' E 024°11'0 0.2
2017-Oct-15 17:00N 40°40' E 024°11'1 1.2
2017-Oct-15 16:30N 40°40' E 024°11'2 3.1
2017-Oct-15 16:00N 40°41' E 024°13'3 6.8
2017-Oct-15 15:31N 40°44' E 024°15'4 7.1
2017-Oct-15 15:00N 40°47' E 024°18'2 0.1
2017-Oct-13 20:08N 40°49' E 024°20'110.2
2017-Oct-13 20:00N 40°48' E 024°19'510.4
2017-Oct-13 19:30N 40°45' E 024°14'4 7.7
2017-Oct-13 19:00N 40°42' E 024°11'0 0.1
2017-Oct-13 17:31N 40°41' E 024°10'0 0.6
2017-Oct-13 17:30N 40°41' E 024°10'0 0.3
2017-Oct-13 17:00N 40°41' E 024°10'1 1.4
2017-Oct-13 16:30N 40°41' E 024°10'4 6.7
2017-Oct-13 15:52N 40°44' E 024°13'3 8.5
2017-Oct-13 15:30N 40°47' E 024°16'4 7.9
2017-Oct-13 15:00N 40°49' E 024°20'2 4.1
2017-Oct-13 14:30N 40°51' E 024°19'0 0.0
2017-Oct-13 14:00N 40°51' E 024°19'0 0.0
2017-Oct-13 13:30N 40°51' E 024°19'0 0.0
2017-Oct-13 13:00N 40°51' E 024°19'0 0.0
2017-Oct-13 12:30N 40°51' E 024°19'0 0.0
2017-Oct-13 12:00N 40°51' E 024°19'0 0.0
2017-Oct-13 11:30N 40°51' E 024°19'0 0.0
2017-Oct-13 11:00N 40°51' E 024°19'0 0.0
2017-Oct-13 10:30N 40°51' E 024°19'0 0.0
2017-Oct-13 10:00N 40°51' E 024°19'0 0.0
2017-Oct-13 09:30N 40°51' E 024°19'0 0.5
2017-Oct-13 09:00N 40°51' E 024°19'0 0.0
2017-Oct-13 08:30N 40°51' E 024°19'0 0.6
2017-Oct-13 08:00N 40°51' E 024°19'0 0.0
2017-Oct-13 07:30N 40°51' E 024°19'0 0.0
2017-Oct-13 07:00N 40°51' E 024°19'0 0.0
2017-Oct-13 06:30N 40°51' E 024°19'0 0.0
2017-Oct-13 06:00N 40°51' E 024°19'0 0.0
2017-Oct-13 05:30N 40°51' E 024°19'0 0.0
2017-Oct-13 05:00N 40°51' E 024°19'0 0.0
2017-Oct-13 04:30N 40°51' E 024°19'0 0.0
2017-Oct-13 04:00N 40°51' E 024°19'0 0.0
2017-Oct-13 03:30N 40°51' E 024°19'0 0.0
2017-Oct-13 03:00N 40°51' E 024°19'0 0.0
2017-Oct-13 02:30N 40°51' E 024°19'0 0.0
2017-Oct-13 02:00N 40°51' E 024°19'0 0.0
2017-Oct-13 01:30N 40°51' E 024°19'0 0.0
2017-Oct-13 01:00N 40°51' E 024°19'0 0.0
2017-Oct-13 00:30N 40°51' E 024°19'0 0.0
2017-Oct-13 00:00N 40°51' E 024°19'0 0.0
2017-Oct-12 23:30N 40°51' E 024°19'0 0.0
2017-Oct-12 23:00N 40°51' E 024°19'0 0.0
2017-Oct-12 22:30N 40°51' E 024°19'0 0.0
2017-Oct-12 22:00N 40°51' E 024°19'0 0.1
2017-Oct-12 21:30N 40°51' E 024°19'0 0.0
2017-Oct-12 21:00N 40°51' E 024°19'0 0.0
2017-Oct-12 20:30N 40°51' E 024°19'2 5.0
2017-Oct-12 20:00N 40°48' E 024°19'510.3
2017-Oct-12 19:30N 40°45' E 024°13'5 9.8
2017-Oct-12 18:59N 40°42' E 024°08'1 2.8
2017-Oct-12 18:29N 40°41' E 024°08'0 0.3
2017-Oct-12 18:00N 40°41' E 024°08'0 0.6
2017-Oct-12 17:30N 40°41' E 024°08'0 0.5
2017-Oct-12 16:59N 40°41' E 024°08'1 2.6
2017-Oct-12 16:30N 40°41' E 024°10'4 6.6
2017-Oct-12 15:53N 40°44' E 024°13'4 8.9
2017-Oct-12 15:29N 40°46' E 024°17'4 8.3
2017-Oct-12 15:00N 40°49' E 024°20'1 0.0
2017-Oct-11 00:00N 40°48' E 024°20'0 0.6
2017-Oct-10 23:30N 40°48' E 024°21'0 0.4
2017-Oct-10 23:00N 40°48' E 024°20'0 0.1
2017-Oct-10 22:30N 40°48' E 024°20'0 0.6
2017-Oct-10 22:00N 40°48' E 024°20'0 0.2
2017-Oct-10 21:30N 40°48' E 024°20'3 6.7
2017-Oct-10 21:00N 40°44' E 024°20'510.0
2017-Oct-10 20:30N 40°39' E 024°20'1 1.3
2017-Oct-10 20:00N 40°39' E 024°20'0 0.6
2017-Oct-10 19:30N 40°38' E 024°20'0 0.7
2017-Oct-10 19:00N 40°39' E 024°20'0 0.3
2017-Oct-10 18:30N 40°39' E 024°20'0 0.6
2017-Oct-10 18:00N 40°39' E 024°20'1 2.4
2017-Oct-10 17:30N 40°40' E 024°21'0 0.3
2017-Oct-10 16:56N 40°39' E 024°21'1 1.2
2017-Oct-10 16:30N 40°39' E 024°22'2 3.6
2017-Oct-10 16:00N 40°41' E 024°22'4 9.0
2017-Oct-10 15:30N 40°45' E 024°22'4 8.8
2017-Oct-10 15:00N 40°50' E 024°21'2 1.9
2017-Oct-10 14:00N 40°51' E 024°19'0 0.0
2017-Oct-10 13:30N 40°51' E 024°19'0 0.0
2017-Oct-10 13:00N 40°51' E 024°19'0 0.0
2017-Oct-10 12:30N 40°51' E 024°19'0 0.0
2017-Oct-10 12:00N 40°51' E 024°19'0 0.0
2017-Oct-10 11:30N 40°51' E 024°19'0 0.0
2017-Oct-10 11:00N 40°51' E 024°19'0 0.0
2017-Oct-10 10:30N 40°51' E 024°19'0 0.0
2017-Oct-10 10:00N 40°51' E 024°19'0 0.0
2017-Oct-10 09:30N 40°51' E 024°19'0 0.0
2017-Oct-10 09:00N 40°51' E 024°19'0 0.0
2017-Oct-10 08:30N 40°51' E 024°19'0 0.0
2017-Oct-10 08:00N 40°51' E 024°19'0 0.0
2017-Oct-10 07:30N 40°51' E 024°19'0 0.0
2017-Oct-10 07:00N 40°51' E 024°19'0 0.0
2017-Oct-10 06:30N 40°51' E 024°19'0 0.0
2017-Oct-10 06:00N 40°51' E 024°19'0 0.0
2017-Oct-10 05:30N 40°51' E 024°19'0 0.0
2017-Oct-10 05:00N 40°51' E 024°19'0 0.0
2017-Oct-10 04:30N 40°51' E 024°19'0 0.0
2017-Oct-10 04:00N 40°51' E 024°19'0 0.0
2017-Oct-10 03:30N 40°51' E 024°19'0 0.0
2017-Oct-10 03:00N 40°51' E 024°19'0 0.0
2017-Oct-10 02:30N 40°51' E 024°19'0 0.0
2017-Oct-10 02:00N 40°51' E 024°19'0 0.0
2017-Oct-10 01:30N 40°51' E 024°19'0 0.0
2017-Oct-10 01:00N 40°51' E 024°19'0 0.0
2017-Oct-10 00:30N 40°51' E 024°19'0 0.0
2017-Oct-10 00:00N 40°51' E 024°19'0 0.0
2017-Oct-09 23:30N 40°51' E 024°19'0 0.0
2017-Oct-09 23:00N 40°51' E 024°19'0 0.0
2017-Oct-09 22:30N 40°51' E 024°19'4 7.7
2017-Oct-09 22:00N 40°47' E 024°19'5 9.9
2017-Oct-09 21:30N 40°43' E 024°17'2 3.5
2017-Oct-09 21:00N 40°44' E 024°18'5 9.3
2017-Oct-09 20:30N 40°48' E 024°20'3 5.3
2017-Oct-09 20:00N 40°51' E 024°19'4 7.9
2017-Oct-09 19:30N 40°47' E 024°19'5 9.2
2017-Oct-09 19:00N 40°43' E 024°17'0 0.5
2017-Oct-09 18:30N 40°43' E 024°17'0 0.1
2017-Oct-09 18:00N 40°43' E 024°17'0 0.2
2017-Oct-09 17:30N 40°43' E 024°17'0 0.4
2017-Oct-09 17:00N 40°42' E 024°17'0 0.2
2017-Oct-09 16:30N 40°42' E 024°17'0 0.4
2017-Oct-09 16:00N 40°43' E 024°17'2 3.5
2017-Oct-09 15:30N 40°44' E 024°18'4 7.7
2017-Oct-09 15:00N 40°48' E 024°20'3 5.6
2017-Oct-09 14:30N 40°51' E 024°19'0 0.9
2017-Oct-09 14:00N 40°51' E 024°19'0 0.0
2017-Oct-09 13:30N 40°51' E 024°19'0 0.0
2017-Oct-09 13:00N 40°51' E 024°19'0 0.0
2017-Oct-09 12:30N 40°51' E 024°19'0 0.0
2017-Oct-09 12:00N 40°51' E 024°19'0 0.0
2017-Oct-09 11:30N 40°51' E 024°19'0 0.0
2017-Oct-09 11:00N 40°51' E 024°19'0 0.0
2017-Oct-09 10:30N 40°51' E 024°19'0 0.0
2017-Oct-09 10:00N 40°51' E 024°19'0 0.0
2017-Oct-09 09:30N 40°51' E 024°19'0 0.0
2017-Oct-09 09:00N 40°51' E 024°19'0 0.0
2017-Oct-09 08:30N 40°51' E 024°19'0 0.0
2017-Oct-09 08:00N 40°51' E 024°19'0 0.0
2017-Oct-09 07:30N 40°51' E 024°19'0 0.0
2017-Oct-09 07:00N 40°51' E 024°19'0 0.0
2017-Oct-09 06:30N 40°51' E 024°19'0 0.0
2017-Oct-09 06:00N 40°51' E 024°19'0 0.0
2017-Oct-09 05:30N 40°51' E 024°19'0 0.0
2017-Oct-09 05:00N 40°51' E 024°19'0 0.0
2017-Oct-09 04:30N 40°51' E 024°19'0 0.0
2017-Oct-09 04:00N 40°51' E 024°19'0 0.0
2017-Oct-09 03:30N 40°51' E 024°19'0 0.0
2017-Oct-09 03:00N 40°51' E 024°19'0 0.0
2017-Oct-09 02:30N 40°51' E 024°19'0 0.0
2017-Oct-09 02:00N 40°51' E 024°19'0 0.0
2017-Oct-09 01:30N 40°51' E 024°19'0 0.0
2017-Oct-09 01:00N 40°51' E 024°19'0 0.0
2017-Oct-09 00:30N 40°51' E 024°19'0 0.0
2017-Oct-09 00:00N 40°51' E 024°19'0 0.0
2017-Oct-08 23:30N 40°51' E 024°19'0 0.0
2017-Oct-08 23:00N 40°51' E 024°19'0 0.0
2017-Oct-08 22:30N 40°51' E 024°19'0 0.0
2017-Oct-08 22:00N 40°51' E 024°19'0 0.0
2017-Oct-08 21:30N 40°51' E 024°19'2 4.0
2017-Oct-08 21:00N 40°50' E 024°21'5 9.0
2017-Oct-08 20:30N 40°45' E 024°20'3 6.4
2017-Oct-08 20:00N 40°42' E 024°20'4 7.1
2017-Oct-08 19:30N 40°43' E 024°16'0 0.0
2017-Oct-08 18:59N 40°43' E 024°16'0 0.1
2017-Oct-08 18:30N 40°43' E 024°16'0 0.6
2017-Oct-08 18:00N 40°43' E 024°16'0 0.4
2017-Oct-08 17:30N 40°43' E 024°16'0 0.2
2017-Oct-08 17:00N 40°43' E 024°16'1 2.9
2017-Oct-08 16:30N 40°44' E 024°14'1 2.0
2017-Oct-08 15:56N 40°44' E 024°16'4 8.7
2017-Oct-08 15:30N 40°47' E 024°19'3 6.5
2017-Oct-08 15:00N 40°50' E 024°20'1 1.8
2017-Oct-08 14:30N 40°51' E 024°19'0 0.0
2017-Oct-08 14:00N 40°51' E 024°19'0 0.0
2017-Oct-08 13:30N 40°51' E 024°19'0 0.0
2017-Oct-08 13:00N 40°51' E 024°19'0 0.0
2017-Oct-08 12:30N 40°51' E 024°19'0 0.0
2017-Oct-08 12:00N 40°51' E 024°19'0 0.0
2017-Oct-08 11:30N 40°51' E 024°19'0 0.0
2017-Oct-08 11:00N 40°51' E 024°19'0 0.0
2017-Oct-08 10:30N 40°51' E 024°19'0 0.0
2017-Oct-08 10:00N 40°51' E 024°19'0 0.0
2017-Oct-08 09:30N 40°51' E 024°19'0 0.0
2017-Oct-08 09:00N 40°51' E 024°19'0 0.0
2017-Oct-08 08:30N 40°51' E 024°19'0 0.0
2017-Oct-08 08:00N 40°51' E 024°19'0 0.0
2017-Oct-08 07:30N 40°51' E 024°19'0 0.0
2017-Oct-08 07:00N 40°51' E 024°19'0 0.0
2017-Oct-08 06:30N 40°51' E 024°19'0 0.0
2017-Oct-08 06:00N 40°51' E 024°19'0 0.0
2017-Oct-08 05:30N 40°51' E 024°19'0 0.0
2017-Oct-08 05:00N 40°51' E 024°19'0 0.0
2017-Oct-08 04:30N 40°51' E 024°19'0 0.0
2017-Oct-08 04:00N 40°51' E 024°19'0 0.0
2017-Oct-08 03:30N 40°51' E 024°19'0 0.0
2017-Oct-08 03:00N 40°51' E 024°19'0 0.0
2017-Oct-08 02:30N 40°51' E 024°19'0 0.0
2017-Oct-08 02:00N 40°51' E 024°19'0 0.0
2017-Oct-08 01:30N 40°51' E 024°19'0 0.0
2017-Oct-08 01:00N 40°51' E 024°19'0 0.0
2017-Oct-08 00:30N 40°51' E 024°19'0 0.0
2017-Oct-08 00:00N 40°51' E 024°19'0 0.0
2017-Oct-07 23:30N 40°51' E 024°19'0 0.0
2017-Oct-07 23:00N 40°51' E 024°19'0 0.0
2017-Oct-07 22:30N 40°51' E 024°19'0 0.0
2017-Oct-07 22:00N 40°51' E 024°19'0 0.0
2017-Oct-07 21:30N 40°51' E 024°19'0 0.0
2017-Oct-07 21:00N 40°51' E 024°19'0 0.0
2017-Oct-07 20:30N 40°51' E 024°19'0 0.0
2017-Oct-07 20:00N 40°51' E 024°19'0 0.0
2017-Oct-07 19:30N 40°51' E 024°19'0 0.0
2017-Oct-07 19:00N 40°51' E 024°19'0 0.0
2017-Oct-07 18:30N 40°51' E 024°19'0 0.0
2017-Oct-07 18:00N 40°51' E 024°19'0 0.0
2017-Oct-07 17:30N 40°51' E 024°19'0 0.0
2017-Oct-07 17:00N 40°51' E 024°19'0 0.0
2017-Oct-07 16:30N 40°51' E 024°19'0 0.0
2017-Oct-07 16:00N 40°51' E 024°19'0 0.0
2017-Oct-07 15:30N 40°51' E 024°19'0 0.0
2017-Oct-07 15:00N 40°51' E 024°19'0 0.0
2017-Oct-07 14:30N 40°51' E 024°19'0 0.0
2017-Oct-07 14:00N 40°51' E 024°19'0 0.0
2017-Oct-07 13:30N 40°51' E 024°19'0 0.0
2017-Oct-07 13:00N 40°51' E 024°19'0 0.0
2017-Oct-07 12:30N 40°51' E 024°19'  
Track history (hours):
 
Tides and Currents Weather Stations Pressure Air Temp Water Temp Dewpoint Dewpoint Depression Visibility Wind Speed Wind Dir Waves Ship Positions

Thyella

Last reported at 2017-Oct-17 12:30 UTC. Time now 2017-Oct-17 12:58 UTC.
Position N 40°51' E 024°19'.

Length 19 m; draft 2.8 m.

Type: Fishing. MMSI: 237998000.

Date/timePositionNaut miles runAvg speedWind from/ knotsBaromVisibWave heightAir tempDewpointWater temp
2017-Oct-17 12:30N 40°51' E 024°19'0 0.0
2017-Oct-17 12:01N 40°51' E 024°19'0 0.0
2017-Oct-17 11:30N 40°51' E 024°19'0 0.0
2017-Oct-17 11:00N 40°51' E 024°19'0 0.0
2017-Oct-17 10:30N 40°51' E 024°19'0 0.0
2017-Oct-17 10:01N 40°51' E 024°19'0 0.0
2017-Oct-17 09:31N 40°51' E 024°19'0 0.0
2017-Oct-17 09:00N 40°51' E 024°19'0 0.0
2017-Oct-17 08:30N 40°51' E 024°19'0 0.0
2017-Oct-17 08:01N 40°51' E 024°19'0 0.0
2017-Oct-17 07:31N 40°51' E 024°19'0 0.0
2017-Oct-17 07:00N 40°51' E 024°19'0 0.0
2017-Oct-17 06:31N 40°51' E 024°19'0 0.0
2017-Oct-17 06:01N 40°51' E 024°19'0 0.0
2017-Oct-17 05:31N 40°51' E 024°19'0 0.0
2017-Oct-17 05:01N 40°51' E 024°19'0 0.0
2017-Oct-17 04:31N 40°51' E 024°19'0 0.0
2017-Oct-17 04:01N 40°51' E 024°19'0 0.0
2017-Oct-17 03:31N 40°51' E 024°19'0 0.0
2017-Oct-17 03:01N 40°51' E 024°19'0 0.0
2017-Oct-17 02:30N 40°51' E 024°19'0 0.0
2017-Oct-17 02:01N 40°51' E 024°19'0 0.0
2017-Oct-17 01:30N 40°51' E 024°19'0 0.0
2017-Oct-17 01:00N 40°51' E 024°19'0 0.0
2017-Oct-17 00:31N 40°51' E 024°19'0 0.0
2017-Oct-17 00:01N 40°51' E 024°19'0 0.0
2017-Oct-16 23:30N 40°51' E 024°19'0 0.0
2017-Oct-16 23:01N 40°51' E 024°19'0 0.0
2017-Oct-16 22:30N 40°51' E 024°19'0 0.0
2017-Oct-16 22:01N 40°51' E 024°19'3 6.3
2017-Oct-16 21:31N 40°48' E 024°21'510.0
2017-Oct-16 21:00N 40°44' E 024°17'510.1
2017-Oct-16 20:30N 40°40' E 024°12'2 3.0
2017-Oct-16 19:56N 40°39' E 024°11'0 0.3
2017-Oct-16 19:30N 40°39' E 024°11'0 0.3
2017-Oct-16 19:00N 40°39' E 024°11'0 0.5
2017-Oct-16 18:28N 40°39' E 024°11'0 0.3
2017-Oct-16 17:49N 40°39' E 024°11'0 0.5
2017-Oct-16 17:25N 40°39' E 024°11'0 0.3
2017-Oct-16 17:01N 40°39' E 024°11'3 5.1
2017-Oct-16 16:31N 40°37' E 024°14'4 7.3
2017-Oct-16 16:00N 40°41' E 024°15'4 7.7
2017-Oct-16 15:29N 40°45' E 024°17'4 7.9
2017-Oct-16 15:01N 40°48' E 024°19'3 3.1
2017-Oct-16 14:01N 40°51' E 024°19'0 0.0
2017-Oct-16 13:31N 40°51' E 024°19'0 0.0
2017-Oct-16 13:01N 40°51' E 024°19'0 0.0
2017-Oct-16 12:30N 40°51' E 024°19'0 0.0
2017-Oct-16 12:01N 40°51' E 024°19'0 0.0
2017-Oct-16 11:31N 40°51' E 024°19'0 0.0
2017-Oct-16 11:01N 40°51' E 024°19'0 0.0
2017-Oct-16 10:30N 40°51' E 024°19'0 0.0
2017-Oct-16 10:00N 40°51' E 024°19'0 0.0
2017-Oct-16 09:30N 40°51' E 024°19'0 0.0
2017-Oct-16 09:00N 40°51' E 024°19'0 0.0
2017-Oct-16 08:31N 40°51' E 024°19'0 0.0
2017-Oct-16 08:00N 40°51' E 024°19'0 0.0
2017-Oct-16 07:31N 40°51' E 024°19'0 0.0
2017-Oct-16 07:01N 40°51' E 024°19'0 0.0
2017-Oct-16 06:31N 40°51' E 024°19'0 0.0
2017-Oct-16 06:01N 40°51' E 024°19'0 0.0
2017-Oct-16 05:30N 40°51' E 024°19'0 0.0
2017-Oct-16 05:01N 40°51' E 024°19'0 0.0
2017-Oct-16 04:31N 40°51' E 024°19'0 0.0
2017-Oct-16 04:01N 40°51' E 024°19'0 0.0
2017-Oct-16 03:31N 40°51' E 024°19'0 0.0
2017-Oct-16 03:00N 40°51' E 024°19'0 0.0
2017-Oct-16 02:30N 40°51' E 024°19'0 0.0
2017-Oct-16 02:01N 40°51' E 024°19'0 0.0
2017-Oct-16 01:30N 40°51' E 024°19'0 0.0
2017-Oct-16 01:01N 40°51' E 024°19'0 0.0
2017-Oct-16 00:31N 40°51' E 024°19'0 0.0
2017-Oct-16 00:00N 40°51' E 024°19'0 0.0
2017-Oct-15 23:30N 40°51' E 024°19'0 0.0
2017-Oct-15 23:00N 40°51' E 024°19'0 0.0
2017-Oct-15 22:30N 40°51' E 024°19'0 0.0
2017-Oct-15 22:00N 40°51' E 024°19'0 0.0
2017-Oct-15 21:30N 40°51' E 024°19'2 3.2
2017-Oct-15 21:01N 40°50' E 024°20'5 9.6
2017-Oct-15 20:29N 40°46' E 024°17'510.2
2017-Oct-15 20:00N 40°42' E 024°13'2 3.8
2017-Oct-15 19:27N 40°40' E 024°11'0 0.5
2017-Oct-15 19:00N 40°40' E 024°11'0 0.3
2017-Oct-15 18:28N 40°40' E 024°11'0 0.5
2017-Oct-15 17:52N 40°40' E 024°11'0 0.7
2017-Oct-15 17:30N 40°40' E 024°11'0 0.2
2017-Oct-15 17:00N 40°40' E 024°11'1 1.2
2017-Oct-15 16:30N 40°40' E 024°11'2 3.1
2017-Oct-15 16:00N 40°41' E 024°13'3 6.8
2017-Oct-15 15:31N 40°44' E 024°15'4 7.1
2017-Oct-15 15:00N 40°47' E 024°18'2 0.1
2017-Oct-13 20:08N 40°49' E 024°20'110.2
2017-Oct-13 20:00N 40°48' E 024°19'510.4
2017-Oct-13 19:30N 40°45' E 024°14'4 7.7
2017-Oct-13 19:00N 40°42' E 024°11'0 0.1
2017-Oct-13 17:31N 40°41' E 024°10'0 0.6
2017-Oct-13 17:30N 40°41' E 024°10'0 0.3
2017-Oct-13 17:00N 40°41' E 024°10'1 1.4
2017-Oct-13 16:30N 40°41' E 024°10'4 6.7
2017-Oct-13 15:52N 40°44' E 024°13'3 8.5
2017-Oct-13 15:30N 40°47' E 024°16'4 7.9
2017-Oct-13 15:00N 40°49' E 024°20'2 4.1
2017-Oct-13 14:30N 40°51' E 024°19'0 0.0
2017-Oct-13 14:00N 40°51' E 024°19'0 0.0
2017-Oct-13 13:30N 40°51' E 024°19'0 0.0
2017-Oct-13 13:00N 40°51' E 024°19'0 0.0
2017-Oct-13 12:30N 40°51' E 024°19'0 0.0
2017-Oct-13 12:00N 40°51' E 024°19'0 0.0
2017-Oct-13 11:30N 40°51' E 024°19'0 0.0
2017-Oct-13 11:00N 40°51' E 024°19'0 0.0
2017-Oct-13 10:30N 40°51' E 024°19'0 0.0
2017-Oct-13 10:00N 40°51' E 024°19'0 0.0
2017-Oct-13 09:30N 40°51' E 024°19'0 0.5
2017-Oct-13 09:00N 40°51' E 024°19'0 0.0
2017-Oct-13 08:30N 40°51' E 024°19'0 0.6
2017-Oct-13 08:00N 40°51' E 024°19'0 0.0
2017-Oct-13 07:30N 40°51' E 024°19'0 0.0
2017-Oct-13 07:00N 40°51' E 024°19'0 0.0
2017-Oct-13 06:30N 40°51' E 024°19'0 0.0
2017-Oct-13 06:00N 40°51' E 024°19'0 0.0
2017-Oct-13 05:30N 40°51' E 024°19'0 0.0
2017-Oct-13 05:00N 40°51' E 024°19'0 0.0
2017-Oct-13 04:30N 40°51' E 024°19'0 0.0
2017-Oct-13 04:00N 40°51' E 024°19'0 0.0
2017-Oct-13 03:30N 40°51' E 024°19'0 0.0
2017-Oct-13 03:00N 40°51' E 024°19'0 0.0
2017-Oct-13 02:30N 40°51' E 024°19'0 0.0
2017-Oct-13 02:00N 40°51' E 024°19'0 0.0
2017-Oct-13 01:30N 40°51' E 024°19'0 0.0
2017-Oct-13 01:00N 40°51' E 024°19'0 0.0
2017-Oct-13 00:30N 40°51' E 024°19'0 0.0
2017-Oct-13 00:00N 40°51' E 024°19'0 0.0
2017-Oct-12 23:30N 40°51' E 024°19'0 0.0
2017-Oct-12 23:00N 40°51' E 024°19'0 0.0
2017-Oct-12 22:30N 40°51' E 024°19'0 0.0
2017-Oct-12 22:00N 40°51' E 024°19'0 0.1
2017-Oct-12 21:30N 40°51' E 024°19'0 0.0
2017-Oct-12 21:00N 40°51' E 024°19'0 0.0
2017-Oct-12 20:30N 40°51' E 024°19'2 5.0
2017-Oct-12 20:00N 40°48' E 024°19'510.3
2017-Oct-12 19:30N 40°45' E 024°13'5 9.8
2017-Oct-12 18:59N 40°42' E 024°08'1 2.8
2017-Oct-12 18:29N 40°41' E 024°08'0 0.3
2017-Oct-12 18:00N 40°41' E 024°08'0 0.6
2017-Oct-12 17:30N 40°41' E 024°08'0 0.5
2017-Oct-12 16:59N 40°41' E 024°08'1 2.6
2017-Oct-12 16:30N 40°41' E 024°10'4 6.6
2017-Oct-12 15:53N 40°44' E 024°13'4 8.9
2017-Oct-12 15:29N 40°46' E 024°17'4 8.3
2017-Oct-12 15:00N 40°49' E 024°20'1 0.0
2017-Oct-11 00:00N 40°48' E 024°20'0 0.6
2017-Oct-10 23:30N 40°48' E 024°21'0 0.4
2017-Oct-10 23:00N 40°48' E 024°20'0 0.1
2017-Oct-10 22:30N 40°48' E 024°20'0 0.6
2017-Oct-10 22:00N 40°48' E 024°20'0 0.2
2017-Oct-10 21:30N 40°48' E 024°20'3 6.7
2017-Oct-10 21:00N 40°44' E 024°20'510.0
2017-Oct-10 20:30N 40°39' E 024°20'1 1.3
2017-Oct-10 20:00N 40°39' E 024°20'0 0.6
2017-Oct-10 19:30N 40°38' E 024°20'0 0.7
2017-Oct-10 19:00N 40°39' E 024°20'0 0.3
2017-Oct-10 18:30N 40°39' E 024°20'0 0.6
2017-Oct-10 18:00N 40°39' E 024°20'1 2.4
2017-Oct-10 17:30N 40°40' E 024°21'0 0.3
2017-Oct-10 16:56N 40°39' E 024°21'1 1.2
2017-Oct-10 16:30N 40°39' E 024°22'2 3.6
2017-Oct-10 16:00N 40°41' E 024°22'4 9.0
2017-Oct-10 15:30N 40°45' E 024°22'4 8.8
2017-Oct-10 15:00N 40°50' E 024°21'2 1.9
2017-Oct-10 14:00N 40°51' E 024°19'0 0.0
2017-Oct-10 13:30N 40°51' E 024°19'0 0.0
2017-Oct-10 13:00N 40°51' E 024°19'0 0.0
2017-Oct-10 12:30N 40°51' E 024°19'0 0.0
2017-Oct-10 12:00N 40°51' E 024°19'0 0.0
2017-Oct-10 11:30N 40°51' E 024°19'0 0.0
2017-Oct-10 11:00N 40°51' E 024°19'0 0.0
2017-Oct-10 10:30N 40°51' E 024°19'0 0.0
2017-Oct-10 10:00N 40°51' E 024°19'0 0.0
2017-Oct-10 09:30N 40°51' E 024°19'0 0.0
2017-Oct-10 09:00N 40°51' E 024°19'0 0.0
2017-Oct-10 08:30N 40°51' E 024°19'0 0.0
2017-Oct-10 08:00N 40°51' E 024°19'0 0.0
2017-Oct-10 07:30N 40°51' E 024°19'0 0.0
2017-Oct-10 07:00N 40°51' E 024°19'0 0.0
2017-Oct-10 06:30N 40°51' E 024°19'0 0.0
2017-Oct-10 06:00N 40°51' E 024°19'0 0.0
2017-Oct-10 05:30N 40°51' E 024°19'0 0.0
2017-Oct-10 05:00N 40°51' E 024°19'0 0.0
2017-Oct-10 04:30N 40°51' E 024°19'0 0.0
2017-Oct-10 04:00N 40°51' E 024°19'0 0.0
2017-Oct-10 03:30N 40°51' E 024°19'0 0.0
2017-Oct-10 03:00N 40°51' E 024°19'0 0.0
2017-Oct-10 02:30N 40°51' E 024°19'0 0.0
2017-Oct-10 02:00N 40°51' E 024°19'0 0.0
2017-Oct-10 01:30N 40°51' E 024°19'0 0.0
2017-Oct-10 01:00N 40°51' E 024°19'0 0.0
2017-Oct-10 00:30N 40°51' E 024°19'0 0.0
2017-Oct-10 00:00N 40°51' E 024°19'0 0.0
2017-Oct-09 23:30N 40°51' E 024°19'0 0.0
2017-Oct-09 23:00N 40°51' E 024°19'0 0.0
2017-Oct-09 22:30N 40°51' E 024°19'4 7.7
2017-Oct-09 22:00N 40°47' E 024°19'5 9.9
2017-Oct-09 21:30N 40°43' E 024°17'2 3.5
2017-Oct-09 21:00N 40°44' E 024°18'5 9.3
2017-Oct-09 20:30N 40°48' E 024°20'3 5.3
2017-Oct-09 20:00N 40°51' E 024°19'4 7.9
2017-Oct-09 19:30N 40°47' E 024°19'5 9.2
2017-Oct-09 19:00N 40°43' E 024°17'0 0.5
2017-Oct-09 18:30N 40°43' E 024°17'0 0.1
2017-Oct-09 18:00N 40°43' E 024°17'0 0.2
2017-Oct-09 17:30N 40°43' E 024°17'0 0.4
2017-Oct-09 17:00N 40°42' E 024°17'0 0.2
2017-Oct-09 16:30N 40°42' E 024°17'0 0.4
2017-Oct-09 16:00N 40°43' E 024°17'2 3.5
2017-Oct-09 15:30N 40°44' E 024°18'4 7.7
2017-Oct-09 15:00N 40°48' E 024°20'3 5.6
2017-Oct-09 14:30N 40°51' E 024°19'0 0.9
2017-Oct-09 14:00N 40°51' E 024°19'0 0.0
2017-Oct-09 13:30N 40°51' E 024°19'0 0.0
2017-Oct-09 13:00N 40°51' E 024°19'0 0.0
2017-Oct-09 12:30N 40°51' E 024°19'0 0.0
2017-Oct-09 12:00N 40°51' E 024°19'0 0.0
2017-Oct-09 11:30N 40°51' E 024°19'0 0.0
2017-Oct-09 11:00N 40°51' E 024°19'0 0.0
2017-Oct-09 10:30N 40°51' E 024°19'0 0.0
2017-Oct-09 10:00N 40°51' E 024°19'0 0.0
2017-Oct-09 09:30N 40°51' E 024°19'0 0.0
2017-Oct-09 09:00N 40°51' E 024°19'0 0.0
2017-Oct-09 08:30N 40°51' E 024°19'0 0.0
2017-Oct-09 08:00N 40°51' E 024°19'0 0.0
2017-Oct-09 07:30N 40°51' E 024°19'0 0.0
2017-Oct-09 07:00N 40°51' E 024°19'0 0.0
2017-Oct-09 06:30N 40°51' E 024°19'0 0.0
2017-Oct-09 06:00N 40°51' E 024°19'0 0.0
2017-Oct-09 05:30N 40°51' E 024°19'0 0.0
2017-Oct-09 05:00N 40°51' E 024°19'0 0.0
2017-Oct-09 04:30N 40°51' E 024°19'0 0.0
2017-Oct-09 04:00N 40°51' E 024°19'0 0.0
2017-Oct-09 03:30N 40°51' E 024°19'0 0.0
2017-Oct-09 03:00N 40°51' E 024°19'0 0.0
2017-Oct-09 02:30N 40°51' E 024°19'0 0.0
2017-Oct-09 02:00N 40°51' E 024°19'0 0.0
2017-Oct-09 01:30N 40°51' E 024°19'0 0.0
2017-Oct-09 01:00N 40°51' E 024°19'0 0.0
2017-Oct-09 00:30N 40°51' E 024°19'0 0.0
2017-Oct-09 00:00N 40°51' E 024°19'0 0.0
2017-Oct-08 23:30N 40°51' E 024°19'0 0.0
2017-Oct-08 23:00N 40°51' E 024°19'0 0.0
2017-Oct-08 22:30N 40°51' E 024°19'0 0.0
2017-Oct-08 22:00N 40°51' E 024°19'0 0.0
2017-Oct-08 21:30N 40°51' E 024°19'2 4.0
2017-Oct-08 21:00N 40°50' E 024°21'5 9.0
2017-Oct-08 20:30N 40°45' E 024°20'3 6.4
2017-Oct-08 20:00N 40°42' E 024°20'4 7.1
2017-Oct-08 19:30N 40°43' E 024°16'0 0.0
2017-Oct-08 18:59N 40°43' E 024°16'0 0.1
2017-Oct-08 18:30N 40°43' E 024°16'0 0.6
2017-Oct-08 18:00N 40°43' E 024°16'0 0.4
2017-Oct-08 17:30N 40°43' E 024°16'0 0.2
2017-Oct-08 17:00N 40°43' E 024°16'1 2.9
2017-Oct-08 16:30N 40°44' E 024°14'1 2.0
2017-Oct-08 15:56N 40°44' E 024°16'4 8.7
2017-Oct-08 15:30N 40°47' E 024°19'3 6.5
2017-Oct-08 15:00N 40°50' E 024°20'1 1.8
2017-Oct-08 14:30N 40°51' E 024°19'0 0.0
2017-Oct-08 14:00N 40°51' E 024°19'0 0.0
2017-Oct-08 13:30N 40°51' E 024°19'0 0.0
2017-Oct-08 13:00N 40°51' E 024°19'0 0.0
2017-Oct-08 12:30N 40°51' E 024°19'0 0.0
2017-Oct-08 12:00N 40°51' E 024°19'0 0.0
2017-Oct-08 11:30N 40°51' E 024°19'0 0.0
2017-Oct-08 11:00N 40°51' E 024°19'0 0.0
2017-Oct-08 10:30N 40°51' E 024°19'0 0.0
2017-Oct-08 10:00N 40°51' E 024°19'0 0.0
2017-Oct-08 09:30N 40°51' E 024°19'0 0.0
2017-Oct-08 09:00N 40°51' E 024°19'0 0.0
2017-Oct-08 08:30N 40°51' E 024°19'0 0.0
2017-Oct-08 08:00N 40°51' E 024°19'0 0.0
2017-Oct-08 07:30N 40°51' E 024°19'0 0.0
2017-Oct-08 07:00N 40°51' E 024°19'0 0.0
2017-Oct-08 06:30N 40°51' E 024°19'0 0.0
2017-Oct-08 06:00N 40°51' E 024°19'0 0.0
2017-Oct-08 05:30N 40°51' E 024°19'0 0.0
2017-Oct-08 05:00N 40°51' E 024°19'0 0.0
2017-Oct-08 04:30N 40°51' E 024°19'0 0.0
2017-Oct-08 04:00N 40°51' E 024°19'0 0.0
2017-Oct-08 03:30N 40°51' E 024°19'0 0.0
2017-Oct-08 03:00N 40°51' E 024°19'0 0.0
2017-Oct-08 02:30N 40°51' E 024°19'0 0.0
2017-Oct-08 02:00N 40°51' E 024°19'0 0.0
2017-Oct-08 01:30N 40°51' E 024°19'0 0.0
2017-Oct-08 01:00N 40°51' E 024°19'0 0.0
2017-Oct-08 00:30N 40°51' E 024°19'0 0.0
2017-Oct-08 00:00N 40°51' E 024°19'0 0.0
2017-Oct-07 23:30N 40°51' E 024°19'0 0.0
2017-Oct-07 23:00N 40°51' E 024°19'0 0.0
2017-Oct-07 22:30N 40°51' E 024°19'0 0.0
2017-Oct-07 22:00N 40°51' E 024°19'0 0.0
2017-Oct-07 21:30N 40°51' E 024°19'0 0.0
2017-Oct-07 21:00N 40°51' E 024°19'0 0.0
2017-Oct-07 20:30N 40°51' E 024°19'0 0.0
2017-Oct-07 20:00N 40°51' E 024°19'0 0.0
2017-Oct-07 19:30N 40°51' E 024°19'0 0.0
2017-Oct-07 19:00N 40°51' E 024°19'0 0.0
2017-Oct-07 18:30N 40°51' E 024°19'0 0.0
2017-Oct-07 18:00N 40°51' E 024°19'0 0.0
2017-Oct-07 17:30N 40°51' E 024°19'0 0.0
2017-Oct-07 17:00N 40°51' E 024°19'0 0.0
2017-Oct-07 16:30N 40°51' E 024°19'0 0.0
2017-Oct-07 16:00N 40°51' E 024°19'0 0.0
2017-Oct-07 15:30N 40°51' E 024°19'0 0.0
2017-Oct-07 15:00N 40°51' E 024°19'0 0.0
2017-Oct-07 14:30N 40°51' E 024°19'0 0.0
2017-Oct-07 14:00N 40°51' E 024°19'0 0.0
2017-Oct-07 13:30N 40°51' E 024°19'0 0.0
2017-Oct-07 13:00N 40°51' E 024°19'0 0.0
2017-Oct-07 12:30N 40°51' E 024°19'  

Dump ship's entire track history